createdAt,value
2024-05-09T00:02:03.059Z,14.27
2024-05-09T00:07:46.705Z,14.13
2024-05-09T00:17:03.562Z,15.20
2024-05-09T00:19:42.997Z,14.80
2024-05-09T00:22:14.145Z,15.40
2024-05-09T00:24:52.114Z,15.60
2024-05-09T00:28:03.501Z,15.13
2024-05-09T00:31:04.043Z,16.40
2024-05-09T00:37:02.860Z,16.77
2024-05-09T00:39:45.157Z,19.33
2024-05-09T00:42:21.921Z,21.50
2024-05-09T00:55:29.905Z,23.73
2024-05-09T01:02:37.106Z,25.13
2024-05-09T01:16:41.356Z,25.33
2024-05-09T01:19:48.762Z,28.73
2024-05-09T01:22:25.388Z,27.23
2024-05-09T01:25:32.367Z,28.53
2024-05-09T01:28:11.690Z,28.70
2024-05-09T01:30:48.577Z,30.07
2024-05-09T01:33:19.389Z,31.83
2024-05-09T01:36:26.594Z,30.20
2024-05-09T01:42:41.799Z,30.73
2024-05-09T01:45:36.080Z,27.73
2024-05-09T01:48:10.772Z,27.03
2024-05-09T01:50:44.148Z,29.27
2024-05-09T01:53:16.831Z,26.73
2024-05-09T01:56:22.002Z,25.30
2024-05-09T01:59:30.979Z,24.00
2024-05-09T02:02:04.579Z,24.93
2024-05-09T02:04:38.039Z,25.80
2024-05-09T02:07:09.517Z,25.40
2024-05-09T02:09:42.930Z,24.40
2024-05-09T02:12:19.478Z,24.40
2024-05-09T02:14:57.607Z,24.07
2024-05-09T02:17:31.232Z,24.03
2024-05-09T02:20:03.674Z,24.27
2024-05-09T02:22:36.377Z,22.30
2024-05-09T02:25:06.759Z,25.90
2024-05-09T02:27:40.156Z,25.10
2024-05-09T02:30:31.128Z,25.43
2024-05-09T02:33:14.493Z,23.90
2024-05-09T02:41:36.142Z,24.73
2024-05-09T02:44:21.794Z,25.23
2024-05-09T02:47:15.518Z,24.93
2024-05-09T02:53:07.967Z,29.47
2024-05-09T02:56:05.892Z,29.80
2024-05-09T02:58:39.032Z,26.90
2024-05-09T03:01:06.536Z,29.67
2024-05-09T03:03:45.375Z,31.47
2024-05-09T03:06:13.390Z,31.23
2024-05-09T03:09:24.651Z,31.80
2024-05-09T03:12:16.871Z,30.03
2024-05-09T03:14:47.016Z,29.17
2024-05-09T03:17:15.155Z,30.23
2024-05-09T03:20:00.822Z,29.70
2024-05-09T03:22:37.511Z,31.43
2024-05-09T03:25:10.859Z,32.47
2024-05-09T03:27:40.355Z,30.43
2024-05-09T03:30:26.178Z,32.47
2024-05-09T03:33:03.231Z,31.77
2024-05-09T03:35:36.485Z,31.70
2024-05-09T03:38:06.766Z,32.27
2024-05-09T03:40:37.017Z,33.00
2024-05-09T03:43:11.695Z,31.37
2024-05-09T03:46:12.529Z,30.83
2024-05-09T03:48:53.036Z,33.33
2024-05-09T03:51:23.650Z,32.73
2024-05-09T03:54:25.458Z,32.83
2024-05-09T03:56:54.691Z,32.47
2024-05-09T03:59:28.371Z,31.87
2024-05-09T04:02:01.604Z,30.77
2024-05-09T04:04:35.111Z,31.53
2024-05-09T04:07:08.778Z,31.07
2024-05-09T04:09:39.588Z,32.30
2024-05-09T04:12:20.900Z,31.43
2024-05-09T04:14:54.372Z,30.20
2024-05-09T04:17:26.292Z,29.93
2024-05-09T04:19:59.658Z,31.10
2024-05-09T04:23:11.167Z,32.60
2024-05-09T04:25:36.671Z,32.30
2024-05-09T04:28:08.696Z,32.47
2024-05-09T04:30:39.637Z,32.63
2024-05-09T04:33:31.902Z,32.93
2024-05-09T04:39:56.979Z,32.97
2024-05-09T04:42:43.605Z,30.87
2024-05-09T04:45:54.150Z,30.07
2024-05-09T04:48:28.356Z,29.27
2024-05-09T04:50:59.151Z,29.90
2024-05-09T04:53:35.723Z,31.27
2024-05-09T04:56:10.232Z,27.17
2024-05-09T04:58:44.320Z,26.63
2024-05-09T05:01:12.501Z,25.67
2024-05-09T05:03:46.321Z,24.47
2024-05-09T05:06:14.153Z,24.47
2024-05-09T05:08:49.728Z,24.77
2024-05-09T05:12:24.183Z,24.07
2024-05-09T05:14:52.341Z,23.13
2024-05-09T05:17:22.876Z,22.07
2024-05-09T05:19:57.172Z,22.77
2024-05-09T05:22:27.704Z,23.67
2024-05-09T05:25:20.972Z,21.33
2024-05-09T05:34:28.399Z,20.63
2024-05-09T05:40:03.338Z,17.03
2024-05-09T05:49:09.167Z,16.10
2024-05-09T05:51:49.307Z,16.53
2024-05-09T05:54:25.567Z,15.03
2024-05-09T05:56:59.065Z,15.50
2024-05-09T05:59:30.078Z,14.57
2024-05-09T06:02:04.085Z,13.97
2024-05-09T06:10:38.088Z,11.23
2024-05-09T06:13:16.581Z,11.13
2024-05-09T06:19:10.730Z,10.53
2024-05-09T06:28:19.979Z,9.37
2024-05-09T06:30:55.211Z,9.43
2024-05-09T06:33:32.402Z,9.73
2024-05-09T06:36:33.223Z,10.93
2024-05-09T06:39:07.643Z,9.87
2024-05-09T06:44:43.742Z,10.27
2024-05-09T06:47:17.013Z,10.40
2024-05-09T06:49:46.779Z,9.63
2024-05-09T06:52:18.047Z,9.63
2024-05-09T06:54:48.168Z,9.20
2024-05-09T06:57:27.536Z,8.77
2024-05-09T06:59:59.732Z,9.03
2024-05-09T07:02:29.698Z,9.43
2024-05-09T07:04:59.528Z,8.40
2024-05-09T07:07:29.393Z,8.00
2024-05-09T07:09:58.923Z,7.10
2024-05-09T07:12:26.383Z,8.17
2024-05-09T07:14:56.017Z,7.33
2024-05-09T07:17:27.977Z,7.07
2024-05-09T07:20:05.536Z,5.90
2024-05-09T07:22:36.507Z,6.53
2024-05-09T07:25:10.769Z,7.30
2024-05-09T07:30:34.526Z,5.60
2024-05-09T07:33:03.028Z,6.20
2024-05-09T07:36:02.313Z,6.50
2024-05-09T07:38:32.045Z,6.23
2024-05-09T07:41:06.235Z,5.37
2024-05-09T07:43:35.094Z,5.03
2024-05-09T07:47:14.098Z,5.63
2024-05-09T07:50:35.835Z,5.40
2024-05-09T07:53:22.175Z,5.53
2024-05-09T07:54:55.139Z,5.27
2024-05-09T07:57:25.040Z,5.53
2024-05-09T07:59:52.112Z,5.93
2024-05-09T08:02:22.251Z,5.20
2024-05-09T08:04:49.790Z,6.77
2024-05-09T08:10:36.428Z,5.70
2024-05-09T08:13:15.201Z,5.77
2024-05-09T08:18:36.917Z,5.63
2024-05-09T08:21:13.050Z,5.87
2024-05-09T08:23:54.026Z,5.60
2024-05-09T08:27:09.033Z,4.80
2024-05-09T08:32:51.342Z,4.80
2024-05-09T08:35:22.056Z,4.60
2024-05-09T08:37:53.591Z,4.33
2024-05-09T08:40:33.969Z,4.20
2024-05-09T08:43:27.395Z,4.03
2024-05-09T08:46:01.819Z,4.30
2024-05-09T08:48:44.899Z,4.10
2024-05-09T08:51:18.233Z,4.33
2024-05-09T08:53:49.054Z,4.63
2024-05-09T08:56:40.592Z,3.80
2024-05-09T08:59:14.945Z,4.00
2024-05-09T09:01:59.954Z,4.43
2024-05-09T09:04:37.313Z,4.30
2024-05-09T09:07:09.178Z,5.13
2024-05-09T09:09:43.556Z,5.10
2024-05-09T09:12:15.127Z,4.30
2024-05-09T09:15:13.807Z,4.00
2024-05-09T09:18:19.870Z,3.77
2024-05-09T09:24:45.372Z,3.50
2024-05-09T09:31:07.821Z,4.33
2024-05-09T09:33:42.571Z,11.07
2024-05-09T09:36:24.304Z,15.13
2024-05-09T09:39:26.907Z,3.50
2024-05-09T09:42:18.951Z,3.63
2024-05-09T09:44:54.621Z,3.70
2024-05-09T09:48:11.572Z,3.33
2024-05-09T09:50:52.381Z,3.93
2024-05-09T09:56:09.108Z,3.90
2024-05-09T09:56:30.683Z,3.10
2024-05-09T09:59:05.855Z,3.03
2024-05-09T10:01:34.824Z,2.90
2024-05-09T10:04:08.625Z,2.97
2024-05-09T10:06:41.294Z,2.87
2024-05-09T10:09:17.886Z,3.50
2024-05-09T10:12:07.428Z,3.00
2024-05-09T10:15:04.994Z,3.07
2024-05-09T10:17:36.144Z,3.30
2024-05-09T10:20:30.897Z,2.93
2024-05-09T10:23:07.057Z,3.87
2024-05-09T10:25:37.401Z,3.17
2024-05-09T10:28:05.234Z,2.80
2024-05-09T10:31:20.481Z,2.30
2024-05-09T10:36:51.775Z,2.20
2024-05-09T10:39:29.317Z,2.10
2024-05-09T10:42:42.852Z,2.17
2024-05-09T10:45:52.316Z,1.93
2024-05-09T10:48:39.159Z,2.20
2024-05-09T10:51:51.027Z,1.77
2024-05-09T10:54:53.725Z,2.00
2024-05-09T10:57:28.227Z,2.03
2024-05-09T11:00:18.990Z,2.45
2024-05-09T11:02:58.524Z,2.08
2024-05-09T11:05:29.404Z,2.30
2024-05-09T11:08:13.880Z,2.25
2024-05-09T11:11:14.795Z,2.33
2024-05-09T11:17:46.851Z,2.13
2024-05-09T11:28:29.235Z,2.50
2024-05-09T11:36:05.576Z,2.45
2024-05-09T11:37:37.218Z,2.35
2024-05-09T11:43:46.763Z,1.92
2024-05-09T11:46:55.103Z,2.20
2024-05-09T11:50:07.897Z,2.30
2024-05-09T11:53:10.548Z,2.13
2024-05-09T11:56:01.540Z,2.38
2024-05-09T11:58:40.027Z,2.55
2024-05-09T12:01:43.041Z,1.95
2024-05-09T12:04:41.950Z,2.15
2024-05-09T12:07:43.851Z,2.22
2024-05-09T12:10:35.691Z,2.08
2024-05-09T12:16:58.845Z,2.22
2024-05-09T12:23:19.654Z,2.73
2024-05-09T12:26:11.342Z,3.13
2024-05-09T12:32:29.125Z,2.07
2024-05-09T12:35:02.056Z,2.03
2024-05-09T12:38:19.818Z,1.80
2024-05-09T12:41:10.557Z,2.00
2024-05-09T12:43:50.062Z,2.23
2024-05-09T12:46:48.916Z,2.10
2024-05-09T12:49:21.612Z,2.23
2024-05-09T12:52:00.118Z,2.07
2024-05-09T12:55:13.207Z,1.87
2024-05-09T12:58:20.135Z,2.10
2024-05-09T13:00:47.855Z,2.20
2024-05-09T13:03:38.787Z,2.17
2024-05-09T13:06:13.397Z,1.90
2024-05-09T13:08:57.497Z,1.80
2024-05-09T13:11:35.024Z,2.33
2024-05-09T13:14:22.831Z,2.17
2024-05-09T13:16:58.444Z,2.17
2024-05-09T13:19:36.675Z,1.97
2024-05-09T13:22:31.588Z,1.93
2024-05-09T13:25:17.031Z,1.97
2024-05-09T13:27:57.300Z,1.90
2024-05-09T13:30:54.018Z,2.07
2024-05-09T13:33:51.795Z,1.97
2024-05-09T13:36:46.263Z,2.00
2024-05-09T13:39:41.062Z,1.97
2024-05-09T13:42:16.500Z,2.20
2024-05-09T13:44:56.337Z,1.90
2024-05-09T13:47:50.380Z,2.45
2024-05-09T13:50:31.492Z,2.25
2024-05-09T13:53:20.029Z,2.40
2024-05-09T13:56:05.979Z,1.90
2024-05-09T13:58:38.846Z,1.80
2024-05-09T14:01:08.432Z,1.92
2024-05-09T14:03:54.177Z,1.98
2024-05-09T14:06:36.307Z,2.00
2024-05-09T14:12:11.371Z,1.73
2024-05-09T14:15:22.039Z,1.80
2024-05-09T14:18:14.132Z,1.92
2024-05-09T14:21:45.386Z,2.10
2024-05-09T14:24:25.562Z,1.77
2024-05-09T14:26:57.467Z,1.90
2024-05-09T14:29:44.460Z,1.87
2024-05-09T14:32:39.013Z,2.10
2024-05-09T14:35:24.617Z,2.20
2024-05-09T14:37:58.934Z,2.07
2024-05-09T14:40:41.630Z,1.80
2024-05-09T14:43:55.489Z,2.13
2024-05-09T14:46:59.223Z,2.30
2024-05-09T14:49:59.372Z,2.23
2024-05-09T14:52:41.270Z,2.10
2024-05-09T14:55:27.165Z,2.10
2024-05-09T15:02:01.184Z,2.10
2024-05-09T15:05:38.384Z,2.23
2024-05-09T15:12:21.589Z,2.47
2024-05-09T15:18:50.422Z,2.13
2024-05-09T15:21:39.138Z,2.20
2024-05-09T15:25:00.888Z,1.70
2024-05-09T15:31:43.518Z,2.20
2024-05-09T15:37:35.627Z,2.30
2024-05-09T15:40:40.611Z,2.53
2024-05-09T15:47:24.607Z,2.33
2024-05-09T15:50:20.630Z,2.20
2024-05-09T15:53:17.268Z,1.70
2024-05-09T15:55:58.227Z,2.63
2024-05-09T15:58:51.975Z,1.90
2024-05-09T16:01:52.115Z,2.00
2024-05-09T16:05:10.941Z,1.60
2024-05-09T16:11:09.995Z,1.93
2024-05-09T16:14:34.406Z,1.90
2024-05-09T16:17:46.552Z,2.00
2024-05-09T16:20:38.758Z,2.10
2024-05-09T16:23:20.311Z,3.80
2024-05-09T16:26:26.396Z,2.57
2024-05-09T16:29:23.240Z,2.13
2024-05-09T16:31:58.123Z,2.30
2024-05-09T16:37:58.563Z,1.70
2024-05-09T16:40:54.678Z,1.87
2024-05-09T16:50:26.341Z,2.23
2024-05-09T16:56:36.168Z,1.83
2024-05-09T17:03:16.638Z,1.90
2024-05-09T17:09:50.015Z,1.83
2024-05-09T17:12:32.123Z,2.27
2024-05-09T17:15:21.141Z,1.77
2024-05-09T17:18:03.526Z,1.90
2024-05-09T17:20:54.478Z,1.83
2024-05-09T17:27:46.093Z,1.67
2024-05-09T17:30:36.171Z,2.10
2024-05-09T17:33:26.816Z,2.00
2024-05-09T17:36:03.642Z,1.90
2024-05-09T17:38:35.681Z,2.00
2024-05-09T17:41:05.627Z,1.90
2024-05-09T17:43:52.829Z,1.93
2024-05-09T17:46:35.713Z,2.07
2024-05-09T17:49:22.914Z,2.20
2024-05-09T17:52:38.073Z,1.90
2024-05-09T17:55:21.151Z,2.00
2024-05-09T17:58:19.366Z,2.40
2024-05-09T18:01:04.993Z,2.07
2024-05-09T18:03:42.175Z,1.57
2024-05-09T18:06:15.969Z,2.00
2024-05-09T18:09:44.936Z,2.03
2024-05-09T18:12:44.876Z,2.00
2024-05-09T18:15:38.561Z,1.77
2024-05-09T18:18:42.825Z,2.00
2024-05-09T18:21:15.751Z,2.43
2024-05-09T18:23:42.844Z,2.97
2024-05-09T18:26:19.022Z,2.33
2024-05-09T18:28:47.468Z,2.27
2024-05-09T18:31:51.767Z,2.70
2024-05-09T18:34:46.316Z,2.60
2024-05-09T18:41:26.292Z,2.30
2024-05-09T18:44:14.643Z,3.00
2024-05-09T18:47:20.977Z,2.90
2024-05-09T18:50:17.694Z,2.90
2024-05-09T18:53:17.431Z,3.03
2024-05-09T18:55:54.961Z,2.67
2024-05-09T18:58:43.975Z,2.90
2024-05-09T19:01:51.705Z,2.73
2024-05-09T19:04:51.952Z,2.80
2024-05-09T19:08:01.389Z,3.03
2024-05-09T19:17:16.824Z,2.50
2024-05-09T19:19:52.500Z,1.97
2024-05-09T19:22:20.064Z,2.70
2024-05-09T19:24:49.970Z,2.60
2024-05-09T19:27:19.738Z,2.67
2024-05-09T19:29:54.018Z,2.37
2024-05-09T19:32:32.095Z,2.90
2024-05-09T19:35:02.493Z,2.33
2024-05-09T19:37:32.020Z,3.10
2024-05-09T19:40:08.542Z,2.47
2024-05-09T19:42:43.101Z,3.00
2024-05-09T19:45:16.362Z,2.93
2024-05-09T19:47:43.707Z,2.30
2024-05-09T19:50:19.554Z,3.30
2024-05-09T19:52:50.477Z,3.63
2024-05-09T19:55:20.270Z,3.37
2024-05-09T19:57:48.203Z,2.70
2024-05-09T20:00:26.238Z,3.00
2024-05-09T20:03:03.115Z,3.60
2024-05-09T20:05:33.689Z,2.80
2024-05-09T20:08:01.175Z,3.13
2024-05-09T20:10:33.452Z,3.37
2024-05-09T20:13:03.301Z,3.67
2024-05-09T20:15:37.968Z,3.33
2024-05-09T20:18:06.716Z,3.70
2024-05-09T20:20:41.614Z,3.33
2024-05-09T20:23:11.539Z,3.70
2024-05-09T20:25:44.402Z,3.90
2024-05-09T20:28:11.732Z,3.87
2024-05-09T20:30:44.602Z,4.23
2024-05-09T20:33:15.155Z,3.40
2024-05-09T20:35:45.264Z,3.00
2024-05-09T20:38:14.616Z,3.43
2024-05-09T20:40:44.272Z,3.30
2024-05-09T20:43:11.993Z,2.80
2024-05-09T20:45:44.714Z,3.33
2024-05-09T20:48:12.216Z,3.40
2024-05-09T20:50:45.657Z,3.47
2024-05-09T20:53:14.303Z,3.50
2024-05-09T20:55:45.685Z,3.73
2024-05-09T20:58:15.311Z,3.20
2024-05-09T21:00:51.821Z,3.93
2024-05-09T21:03:19.747Z,2.80
2024-05-09T21:05:52.160Z,3.00
2024-05-09T21:08:23.775Z,3.40
2024-05-09T21:10:56.964Z,3.80
2024-05-09T21:13:26.200Z,3.70
2024-05-09T21:16:01.842Z,3.70
2024-05-09T21:18:29.372Z,3.23
2024-05-09T21:20:59.283Z,3.50
2024-05-09T21:23:29.113Z,3.67
2024-05-09T21:25:59.825Z,3.63
2024-05-09T21:28:27.151Z,3.53
2024-05-09T21:30:59.962Z,3.67
2024-05-09T21:33:29.582Z,3.50
2024-05-09T21:35:59.607Z,4.30
2024-05-09T21:38:29.692Z,4.50
2024-05-09T21:40:59.636Z,4.90
2024-05-09T21:43:28.696Z,5.00
2024-05-09T21:46:01.162Z,4.17
2024-05-09T21:48:29.114Z,4.53
2024-05-09T21:50:58.962Z,4.30
2024-05-09T21:53:29.546Z,5.10
2024-05-09T21:56:01.413Z,5.00
2024-05-09T21:58:29.292Z,4.93
2024-05-09T22:01:03.785Z,4.70
2024-05-09T22:03:31.316Z,5.07
2024-05-09T22:06:07.210Z,5.50
2024-05-09T22:08:37.078Z,5.60
2024-05-09T22:11:07.377Z,4.87
2024-05-09T22:13:38.518Z,4.57
2024-05-09T22:16:12.071Z,4.03
2024-05-09T22:18:44.938Z,3.70
2024-05-09T22:21:14.935Z,4.30
2024-05-09T22:23:45.108Z,4.10
2024-05-09T22:26:18.167Z,4.17
2024-05-09T22:28:48.508Z,4.90
2024-05-09T22:31:23.693Z,4.30
2024-05-09T22:33:54.649Z,4.80
2024-05-09T22:36:26.344Z,4.50
2024-05-09T22:38:59.926Z,4.57
2024-05-09T22:41:32.967Z,4.87
2024-05-09T22:44:05.866Z,4.80
2024-05-09T22:46:38.425Z,3.90
2024-05-09T22:49:07.043Z,4.80
2024-05-09T22:51:37.246Z,4.33
2024-05-09T22:54:05.060Z,4.90
2024-05-09T22:56:35.060Z,4.87
2024-05-09T22:59:03.007Z,4.80
2024-05-09T23:01:33.322Z,4.70
2024-05-09T23:04:03.609Z,5.17
2024-05-09T23:06:34.519Z,5.40
2024-05-09T23:09:01.975Z,5.60
2024-05-09T23:11:32.088Z,5.00
2024-05-09T23:13:59.420Z,4.90
2024-05-09T23:16:29.144Z,4.83
2024-05-09T23:18:56.457Z,4.63
2024-05-09T23:21:29.158Z,4.57
2024-05-09T23:23:56.392Z,3.80
2024-05-09T23:26:26.630Z,3.23
2024-05-09T23:28:56.541Z,3.50
2024-05-09T23:31:26.447Z,3.40
2024-05-09T23:33:55.284Z,3.13
2024-05-09T23:36:31.048Z,3.33
2024-05-09T23:38:58.821Z,3.03
2024-05-09T23:41:29.545Z,3.60
2024-05-09T23:43:58.544Z,3.20
2024-05-09T23:46:29.083Z,3.20
2024-05-09T23:48:57.170Z,3.10
2024-05-09T23:51:30.646Z,3.03
2024-05-09T23:53:58.201Z,3.10
2024-05-09T23:56:28.737Z,2.50
2024-05-09T23:58:56.399Z,3.10
